sensor_id;sensor_type;location;lat;lon;timestamp;temperature;humidity
18073;DHT22;9161;47.348;9.648;2024-03-23T00:56:20;8.70;99.90
18073;DHT22;9161;47.348;9.648;2024-03-23T01:01:21;8.70;99.90
18073;DHT22;9161;47.348;9.648;2024-03-23T01:06:23;8.80;99.90
18073;DHT22;9161;47.348;9.648;2024-03-23T01:11:27;8.60;99.90
18073;DHT22;9161;47.348;9.648;2024-03-23T01:16:29;8.80;99.90
18073;DHT22;9161;47.348;9.648;2024-03-23T01:21:30;10.10;99.90
18073;DHT22;9161;47.348;9.648;2024-03-23T01:26:35;11.00;99.90
18073;DHT22;9161;47.348;9.648;2024-03-23T01:31:37;11.20;99.90
18073;DHT22;9161;47.348;9.648;2024-03-23T01:36:37;11.10;99.90
18073;DHT22;9161;47.348;9.648;2024-03-23T01:41:41;11.10;99.90
18073;DHT22;9161;47.348;9.648;2024-03-23T01:46:44;11.10;99.90
18073;DHT22;9161;47.348;9.648;2024-03-23T01:51:45;10.80;99.90
18073;DHT22;9161;47.348;9.648;2024-03-23T01:56:50;10.60;99.90
18073;DHT22;9161;47.348;9.648;2024-03-23T02:01:52;10.70;99.90
18073;DHT22;9161;47.348;9.648;2024-03-23T02:06:54;10.70;99.90
18073;DHT22;9161;47.348;9.648;2024-03-23T02:11:56;10.70;99.90
18073;DHT22;9161;47.348;9.648;2024-03-23T02:16:58;10.60;99.90
18073;DHT22;9161;47.348;9.648;2024-03-23T02:22:00;10.50;99.90
18073;DHT22;9161;47.348;9.648;2024-03-23T02:27:04;10.60;99.90
18073;DHT22;9161;47.348;9.648;2024-03-23T02:32:06;10.30;99.90
18073;DHT22;9161;47.348;9.648;2024-03-23T02:37:11;10.40;99.90
18073;DHT22;9161;47.348;9.648;2024-03-23T02:42:14;10.50;99.90
18073;DHT22;9161;47.348;9.648;2024-03-23T02:47:16;10.60;99.90
18073;DHT22;9161;47.348;9.648;2024-03-23T02:52:17;10.60;99.90
18073;DHT22;9161;47.348;9.648;2024-03-23T02:57:20;10.50;99.90
18073;DHT22;9161;47.348;9.648;2024-03-23T03:02:22;10.40;99.90
18073;DHT22;9161;47.348;9.648;2024-03-23T03:07:23;10.20;99.90
18073;DHT22;9161;47.348;9.648;2024-03-23T03:12:26;10.20;99.90
18073;DHT22;9161;47.348;9.648;2024-03-23T03:17:27;10.20;99.90
18073;DHT22;9161;47.348;9.648;2024-03-23T03:22:29;10.10;99.90
18073;DHT22;9161;47.348;9.648;2024-03-23T03:27:32;10.10;99.90
18073;DHT22;9161;47.348;9.648;2024-03-23T03:32:35;10.00;99.90
18073;DHT22;9161;47.348;9.648;2024-03-23T03:37:37;10.10;99.90
18073;DHT22;9161;47.348;9.648;2024-03-23T03:42:40;10.30;99.90
18073;DHT22;9161;47.348;9.648;2024-03-23T03:47:43;10.40;99.90
18073;DHT22;9161;47.348;9.648;2024-03-23T03:52:52;10.40;99.90
18073;DHT22;9161;47.348;9.648;2024-03-23T03:58:17;10.40;99.90
18073;DHT22;9161;47.348;9.648;2024-03-23T04:03:19;10.40;99.90
18073;DHT22;9161;47.348;9.648;2024-03-23T04:08:20;10.50;99.90
18073;DHT22;9161;47.348;9.648;2024-03-23T04:13:23;10.40;99.90
18073;DHT22;9161;47.348;9.648;2024-03-23T04:18:24;10.20;99.90
18073;DHT22;9161;47.348;9.648;2024-03-23T04:23:26;10.00;99.90
18073;DHT22;9161;47.348;9.648;2024-03-23T04:28:29;9.90;99.90
18073;DHT22;9161;47.348;9.648;2024-03-23T04:33:31;9.70;99.90
18073;DHT22;9161;47.348;9.648;2024-03-23T04:38:34;9.80;99.90
18073;DHT22;9161;47.348;9.648;2024-03-23T04:43:37;10.00;99.90
18073;DHT22;9161;47.348;9.648;2024-03-23T04:48:38;10.00;99.90
18073;DHT22;9161;47.348;9.648;2024-03-23T04:53:39;10.00;99.90
18073;DHT22;9161;47.348;9.648;2024-03-23T04:58:43;10.20;99.90
18073;DHT22;9161;47.348;9.648;2024-03-23T05:03:44;10.10;99.90
18073;DHT22;9161;47.348;9.648;2024-03-23T05:08:46;10.10;99.90
18073;DHT22;9161;47.348;9.648;2024-03-23T05:13:49;10.00;99.90
18073;DHT22;9161;47.348;9.648;2024-03-23T05:18:50;9.70;99.90
18073;DHT22;9161;47.348;9.648;2024-03-23T05:23:53;9.70;99.90
18073;DHT22;9161;47.348;9.648;2024-03-23T05:28:57;9.60;99.90
18073;DHT22;9161;47.348;9.648;2024-03-23T05:33:58;9.60;99.90
18073;DHT22;9161;47.348;9.648;2024-03-23T05:39:00;9.80;99.90
18073;DHT22;9161;47.348;9.648;2024-03-23T05:44:04;10.10;99.90
18073;DHT22;9161;47.348;9.648;2024-03-23T05:49:06;10.20;99.90
18073;DHT22;9161;47.348;9.648;2024-03-23T05:54:07;10.20;99.90
18073;DHT22;9161;47.348;9.648;2024-03-23T05:59:10;10.50;99.90
18073;DHT22;9161;47.348;9.648;2024-03-23T06:04:14;10.60;99.90
18073;DHT22;9161;47.348;9.648;2024-03-23T06:09:16;10.40;99.90
18073;DHT22;9161;47.348;9.648;2024-03-23T06:14:22;10.20;99.90
18073;DHT22;9161;47.348;9.648;2024-03-23T06:19:25;10.30;99.90
18073;DHT22;9161;47.348;9.648;2024-03-23T06:24:27;10.40;99.90
18073;DHT22;9161;47.348;9.648;2024-03-23T06:29:30;10.50;99.90
18073;DHT22;9161;47.348;9.648;2024-03-23T06:34:32;10.50;99.90
18073;DHT22;9161;47.348;9.648;2024-03-23T06:39:35;10.40;99.90
18073;DHT22;9161;47.348;9.648;2024-03-23T06:44:40;10.30;99.90
18073;DHT22;9161;47.348;9.648;2024-03-23T06:49:55;10.40;99.90
18073;DHT22;9161;47.348;9.648;2024-03-23T06:54:57;10.40;99.90
18073;DHT22;9161;47.348;9.648;2024-03-23T07:00:00;10.40;99.90
18073;DHT22;9161;47.348;9.648;2024-03-23T07:05:02;10.70;99.90
18073;DHT22;9161;47.348;9.648;2024-03-23T07:10:05;11.10;99.90
18073;DHT22;9161;47.348;9.648;2024-03-23T07:15:11;11.30;99.90
18073;DHT22;9161;47.348;9.648;2024-03-23T07:20:13;11.20;99.90
18073;DHT22;9161;47.348;9.648;2024-03-23T07:25:15;11.30;99.90
18073;DHT22;9161;47.348;9.648;2024-03-23T07:30:17;11.50;99.90
18073;DHT22;9161;47.348;9.648;2024-03-23T07:35:19;11.50;99.90
18073;DHT22;9161;47.348;9.648;2024-03-23T07:40:21;11.40;99.90
18073;DHT22;9161;47.348;9.648;2024-03-23T07:45:23;11.30;99.90
18073;DHT22;9161;47.348;9.648;2024-03-23T07:50:24;11.10;99.90
18073;DHT22;9161;47.348;9.648;2024-03-23T07:55:25;10.90;99.90
18073;DHT22;9161;47.348;9.648;2024-03-23T08:00:28;10.50;99.90
18073;DHT22;9161;47.348;9.648;2024-03-23T08:05:29;10.30;99.90
18073;DHT22;9161;47.348;9.648;2024-03-23T08:10:30;10.20;99.90
18073;DHT22;9161;47.348;9.648;2024-03-23T08:15:34;10.10;99.90
18073;DHT22;9161;47.348;9.648;2024-03-23T08:20:35;10.10;99.90
18073;DHT22;9161;47.348;9.648;2024-03-23T08:25:36;10.00;99.90
18073;DHT22;9161;47.348;9.648;2024-03-23T08:30:38;10.00;99.90
18073;DHT22;9161;47.348;9.648;2024-03-23T08:35:40;10.00;99.90
18073;DHT22;9161;47.348;9.648;2024-03-23T08:40:42;9.90;99.90
18073;DHT22;9161;47.348;9.648;2024-03-23T08:45:44;9.90;99.90
18073;DHT22;9161;47.348;9.648;2024-03-23T08:50:45;10.00;99.90
18073;DHT22;9161;47.348;9.648;2024-03-23T08:55:53;10.00;99.90
18073;DHT22;9161;47.348;9.648;2024-03-23T09:01:00;10.00;99.90
18073;DHT22;9161;47.348;9.648;2024-03-23T09:06:06;10.00;99.90
18073;DHT22;9161;47.348;9.648;2024-03-23T09:11:11;9.80;99.90
18073;DHT22;9161;47.348;9.648;2024-03-23T09:16:14;9.70;99.90
18073;DHT22;9161;47.348;9.648;2024-03-23T09:21:15;9.60;99.90
18073;DHT22;9161;47.348;9.648;2024-03-23T09:26:16;9.40;99.90
18073;DHT22;9161;47.348;9.648;2024-03-23T09:31:19;9.10;99.90
18073;DHT22;9161;47.348;9.648;2024-03-23T09:36:27;9.00;99.90
18073;DHT22;9161;47.348;9.648;2024-03-23T09:41:29;8.90;99.90
18073;DHT22;9161;47.348;9.648;2024-03-23T09:46:31;8.70;99.90
18073;DHT22;9161;47.348;9.648;2024-03-23T09:51:37;8.80;99.90
18073;DHT22;9161;47.348;9.648;2024-03-23T09:56:38;8.70;99.90
18073;DHT22;9161;47.348;9.648;2024-03-23T10:01:42;8.60;99.90
18073;DHT22;9161;47.348;9.648;2024-03-23T10:06:44;8.60;99.90
18073;DHT22;9161;47.348;9.648;2024-03-23T10:11:45;8.80;99.90
18073;DHT22;9161;47.348;9.648;2024-03-23T10:16:51;8.90;99.90
18073;DHT22;9161;47.348;9.648;2024-03-23T10:21:52;8.70;99.90
18073;DHT22;9161;47.348;9.648;2024-03-23T10:26:56;8.30;99.90
18073;DHT22;9161;47.348;9.648;2024-03-23T10:32:09;8.30;99.90
18073;DHT22;9161;47.348;9.648;2024-03-23T10:37:11;8.10;99.90
18073;DHT22;9161;47.348;9.648;2024-03-23T10:42:13;8.10;99.90
18073;DHT22;9161;47.348;9.648;2024-03-23T10:47:17;8.10;99.90
18073;DHT22;9161;47.348;9.648;2024-03-23T10:52:18;8.20;99.90
18073;DHT22;9161;47.348;9.648;2024-03-23T10:57:23;8.10;99.90
18073;DHT22;9161;47.348;9.648;2024-03-23T11:02:28;8.00;99.90
18073;DHT22;9161;47.348;9.648;2024-03-23T11:07:30;8.00;99.90
18073;DHT22;9161;47.348;9.648;2024-03-23T11:12:32;8.00;99.90
18073;DHT22;9161;47.348;9.648;2024-03-23T11:17:35;8.00;99.90
18073;DHT22;9161;47.348;9.648;2024-03-23T11:22:43;7.90;99.90
18073;DHT22;9161;47.348;9.648;2024-03-23T11:27:47;7.80;99.90
18073;DHT22;9161;47.348;9.648;2024-03-23T11:32:51;7.90;99.90
18073;DHT22;9161;47.348;9.648;2024-03-23T11:38:04;7.70;99.90
18073;DHT22;9161;47.348;9.648;2024-03-23T11:43:06;7.80;99.90
18073;DHT22;9161;47.348;9.648;2024-03-23T11:48:11;7.80;99.90
18073;DHT22;9161;47.348;9.648;2024-03-23T11:53:15;7.80;99.90
18073;DHT22;9161;47.348;9.648;2024-03-23T11:58:17;7.90;99.90
18073;DHT22;9161;47.348;9.648;2024-03-23T12:03:20;7.90;99.90
18073;DHT22;9161;47.348;9.648;2024-03-23T12:08:23;7.80;99.90
18073;DHT22;9161;47.348;9.648;2024-03-23T12:13:24;7.70;99.90
18073;DHT22;9161;47.348;9.648;2024-03-23T12:18:28;7.80;99.90
18073;DHT22;9161;47.348;9.648;2024-03-23T12:23:29;7.90;99.90
18073;DHT22;9161;47.348;9.648;2024-03-23T12:28:32;8.00;99.90
18073;DHT22;9161;47.348;9.648;2024-03-23T12:33:35;8.00;99.90
18073;DHT22;9161;47.348;9.648;2024-03-23T12:38:37;8.00;99.90
18073;DHT22;9161;47.348;9.648;2024-03-23T12:43:37;8.30;99.90
18073;DHT22;9161;47.348;9.648;2024-03-23T12:48:40;8.20;99.90
18073;DHT22;9161;47.348;9.648;2024-03-23T12:53:42;8.20;99.90
18073;DHT22;9161;47.348;9.648;2024-03-23T12:58:44;8.40;99.90
18073;DHT22;9161;47.348;9.648;2024-03-23T13:03:48;8.60;99.90
18073;DHT22;9161;47.348;9.648;2024-03-23T13:08:49;8.80;99.90
18073;DHT22;9161;47.348;9.648;2024-03-23T13:13:51;9.00;99.90
18073;DHT22;9161;47.348;9.648;2024-03-23T13:18:54;9.30;99.90
18073;DHT22;9161;47.348;9.648;2024-03-23T13:23:57;9.20;99.90
18073;DHT22;9161;47.348;9.648;2024-03-23T13:28:58;9.80;99.90
18073;DHT22;9161;47.348;9.648;2024-03-23T13:34:01;10.80;99.90
18073;DHT22;9161;47.348;9.648;2024-03-23T13:39:03;11.40;99.90
18073;DHT22;9161;47.348;9.648;2024-03-23T13:44:11;13.10;99.90
18073;DHT22;9161;47.348;9.648;2024-03-23T13:49:25;14.00;99.90
18073;DHT22;9161;47.348;9.648;2024-03-23T13:54:27;16.20;99.90
18073;DHT22;9161;47.348;9.648;2024-03-23T13:59:28;12.50;99.90
18073;DHT22;9161;47.348;9.648;2024-03-23T14:04:32;11.40;99.90
18073;DHT22;9161;47.348;9.648;2024-03-23T14:09:33;10.80;99.90
18073;DHT22;9161;47.348;9.648;2024-03-23T14:14:35;10.50;99.90
18073;DHT22;9161;47.348;9.648;2024-03-23T14:19:38;10.40;99.90
18073;DHT22;9161;47.348;9.648;2024-03-23T14:24:40;10.20;99.90
18073;DHT22;9161;47.348;9.648;2024-03-23T14:29:42;10.20;99.90
18073;DHT22;9161;47.348;9.648;2024-03-23T14:34:48;10.20;99.90
18073;DHT22;9161;47.348;9.648;2024-03-23T14:39:49;10.10;99.90
18073;DHT22;9161;47.348;9.648;2024-03-23T14:44:54;10.00;99.90
18073;DHT22;9161;47.348;9.648;2024-03-23T14:49:57;10.00;99.90
18073;DHT22;9161;47.348;9.648;2024-03-23T14:54:58;10.00;99.90
18073;DHT22;9161;47.348;9.648;2024-03-23T14:59:59;10.10;99.90
18073;DHT22;9161;47.348;9.648;2024-03-23T15:05:01;10.50;99.90
18073;DHT22;9161;47.348;9.648;2024-03-23T15:10:05;10.50;99.90
18073;DHT22;9161;47.348;9.648;2024-03-23T15:15:08;10.40;99.90
18073;DHT22;9161;47.348;9.648;2024-03-23T15:20:12;15.50;99.90
18073;DHT22;9161;47.348;9.648;2024-03-23T15:25:13;19.10;99.90
18073;DHT22;9161;47.348;9.648;2024-03-23T15:30:15;20.70;96.00
18073;DHT22;9161;47.348;9.648;2024-03-23T15:35:19;21.90;96.20
18073;DHT22;9161;47.348;9.648;2024-03-23T15:40:23;19.50;92.20
18073;DHT22;9161;47.348;9.648;2024-03-23T15:45:24;15.60;92.10
18073;DHT22;9161;47.348;9.648;2024-03-23T15:50:27;14.90;92.60
18073;DHT22;9161;47.348;9.648;2024-03-23T15:55:28;15.50;91.30
18073;DHT22;9161;47.348;9.648;2024-03-23T16:00:29;15.70;93.20
18073;DHT22;9161;47.348;9.648;2024-03-23T16:05:32;15.20;91.30
18073;DHT22;9161;47.348;9.648;2024-03-23T16:10:34;14.70;93.50
18073;DHT22;9161;47.348;9.648;2024-03-23T16:15:36;17.30;93.60
18073;DHT22;9161;47.348;9.648;2024-03-23T16:20:38;19.60;92.00
18073;DHT22;9161;47.348;9.648;2024-03-23T16:25:46;18.10;95.00
18073;DHT22;9161;47.348;9.648;2024-03-23T16:30:54;15.40;98.10
18073;DHT22;9161;47.348;9.648;2024-03-23T16:36:01;14.10;99.90
18073;DHT22;9161;47.348;9.648;2024-03-23T16:41:05;13.60;99.90
18073;DHT22;9161;47.348;9.648;2024-03-23T16:46:08;12.80;99.90
18073;DHT22;9161;47.348;9.648;2024-03-23T16:51:12;10.90;99.90
18073;DHT22;9161;47.348;9.648;2024-03-23T16:56:13;10.50;99.70
18073;DHT22;9161;47.348;9.648;2024-03-23T17:01:14;10.20;99.90
18073;DHT22;9161;47.348;9.648;2024-03-23T17:06:20;10.00;99.90
18073;DHT22;9161;47.348;9.648;2024-03-23T17:11:23;10.00;99.90
18073;DHT22;9161;47.348;9.648;2024-03-23T17:16:24;9.80;99.90
18073;DHT22;9161;47.348;9.648;2024-03-23T17:21:33;9.20;99.90
18073;DHT22;9161;47.348;9.648;2024-03-23T17:26:35;9.10;99.90
18073;DHT22;9161;47.348;9.648;2024-03-23T17:31:37;9.10;99.80
18073;DHT22;9161;47.348;9.648;2024-03-23T17:36:41;9.10;99.90
18073;DHT22;9161;47.348;9.648;2024-03-23T17:41:44;8.90;99.90
18073;DHT22;9161;47.348;9.648;2024-03-23T17:46:45;8.90;99.90
18073;DHT22;9161;47.348;9.648;2024-03-23T17:51:49;8.70;99.90
18073;DHT22;9161;47.348;9.648;2024-03-23T17:56:52;8.70;99.90
18073;DHT22;9161;47.348;9.648;2024-03-23T18:01:57;8.60;99.90
18073;DHT22;9161;47.348;9.648;2024-03-23T18:07:00;8.50;99.90
18073;DHT22;9161;47.348;9.648;2024-03-23T18:12:04;8.50;99.90
18073;DHT22;9161;47.348;9.648;2024-03-23T18:17:07;8.40;99.90
18073;DHT22;9161;47.348;9.648;2024-03-23T18:22:09;8.20;99.90
18073;DHT22;9161;47.348;9.648;2024-03-23T18:27:11;8.20;99.90
18073;DHT22;9161;47.348;9.648;2024-03-23T18:32:17;8.30;99.90
18073;DHT22;9161;47.348;9.648;2024-03-23T18:37:21;8.40;99.90
18073;DHT22;9161;47.348;9.648;2024-03-23T18:42:23;8.40;99.90
18073;DHT22;9161;47.348;9.648;2024-03-23T18:47:26;8.20;99.90
18073;DHT22;9161;47.348;9.648;2024-03-23T18:52:28;8.60;98.00
18073;DHT22;9161;47.348;9.648;2024-03-23T18:57:30;8.70;98.20
18073;DHT22;9161;47.348;9.648;2024-03-23T19:02:31;8.60;99.90
18073;DHT22;9161;47.348;9.648;2024-03-23T19:07:34;8.40;99.90
18073;DHT22;9161;47.348;9.648;2024-03-23T19:12:36;8.30;99.90
18073;DHT22;9161;47.348;9.648;2024-03-23T19:17:38;7.70;99.90
18073;DHT22;9161;47.348;9.648;2024-03-23T19:22:40;7.10;99.90
18073;DHT22;9161;47.348;9.648;2024-03-23T19:27:45;6.60;99.90
18073;DHT22;9161;47.348;9.648;2024-03-23T19:32:50;6.40;99.90
18073;DHT22;9161;47.348;9.648;2024-03-23T19:37:55;6.40;99.90
18073;DHT22;9161;47.348;9.648;2024-03-23T19:42:56;6.30;99.90
18073;DHT22;9161;47.348;9.648;2024-03-23T19:48:01;6.40;99.90
18073;DHT22;9161;47.348;9.648;2024-03-23T19:53:05;6.40;99.90
18073;DHT22;9161;47.348;9.648;2024-03-23T19:58:08;6.10;99.90
18073;DHT22;9161;47.348;9.648;2024-03-23T20:03:11;5.30;99.90
18073;DHT22;9161;47.348;9.648;2024-03-23T20:08:15;5.10;99.90
18073;DHT22;9161;47.348;9.648;2024-03-23T20:13:17;5.00;99.90
18073;DHT22;9161;47.348;9.648;2024-03-23T20:18:20;5.00;99.90
18073;DHT22;9161;47.348;9.648;2024-03-23T20:23:23;5.10;99.90
18073;DHT22;9161;47.348;9.648;2024-03-23T20:28:27;5.10;99.90
18073;DHT22;9161;47.348;9.648;2024-03-23T20:33:29;4.90;99.90
18073;DHT22;9161;47.348;9.648;2024-03-23T20:38:32;4.90;99.90
18073;DHT22;9161;47.348;9.648;2024-03-23T20:43:35;5.10;99.90
18073;DHT22;9161;47.348;9.648;2024-03-23T20:48:41;5.20;99.90
18073;DHT22;9161;47.348;9.648;2024-03-23T20:53:50;5.60;99.90
18073;DHT22;9161;47.348;9.648;2024-03-23T20:58:53;5.40;99.90
18073;DHT22;9161;47.348;9.648;2024-03-23T21:03:54;5.60;99.90
18073;DHT22;9161;47.348;9.648;2024-03-23T21:08:58;5.30;99.90
18073;DHT22;9161;47.348;9.648;2024-03-23T21:14:00;5.10;99.90
18073;DHT22;9161;47.348;9.648;2024-03-23T21:19:03;5.00;99.90
18073;DHT22;9161;47.348;9.648;2024-03-23T21:24:08;4.90;99.90
18073;DHT22;9161;47.348;9.648;2024-03-23T21:29:09;5.00;99.90
18073;DHT22;9161;47.348;9.648;2024-03-23T21:34:11;5.10;99.90
18073;DHT22;9161;47.348;9.648;2024-03-23T21:39:15;5.20;99.90
18073;DHT22;9161;47.348;9.648;2024-03-23T21:44:18;5.40;99.90
18073;DHT22;9161;47.348;9.648;2024-03-23T21:49:22;5.40;99.90
18073;DHT22;9161;47.348;9.648;2024-03-23T21:54:25;5.90;99.90
18073;DHT22;9161;47.348;9.648;2024-03-23T21:59:27;5.40;99.90
18073;DHT22;9161;47.348;9.648;2024-03-23T22:04:28;5.50;99.90
18073;DHT22;9161;47.348;9.648;2024-03-23T22:09:30;5.50;99.90
18073;DHT22;9161;47.348;9.648;2024-03-23T22:14:32;5.50;99.90
18073;DHT22;9161;47.348;9.648;2024-03-23T22:19:34;5.40;99.90
18073;DHT22;9161;47.348;9.648;2024-03-23T22:24:37;5.30;99.90
18073;DHT22;9161;47.348;9.648;2024-03-23T22:29:39;5.20;99.90
18073;DHT22;9161;47.348;9.648;2024-03-23T22:34:41;5.20;99.90
18073;DHT22;9161;47.348;9.648;2024-03-23T22:39:43;5.10;99.90
18073;DHT22;9161;47.348;9.648;2024-03-23T22:44:45;5.00;99.90
18073;DHT22;9161;47.348;9.648;2024-03-23T22:49:45;4.60;99.90
18073;DHT22;9161;47.348;9.648;2024-03-23T22:54:48;4.40;99.90
18073;DHT22;9161;47.348;9.648;2024-03-23T22:59:49;4.30;99.90
18073;DHT22;9161;47.348;9.648;2024-03-23T23:04:51;4.40;99.90
18073;DHT22;9161;47.348;9.648;2024-03-23T23:09:53;4.30;99.90
18073;DHT22;9161;47.348;9.648;2024-03-23T23:14:54;4.20;99.90
18073;DHT22;9161;47.348;9.648;2024-03-23T23:19:55;4.10;99.90
18073;DHT22;9161;47.348;9.648;2024-03-23T23:24:58;4.10;99.90
18073;DHT22;9161;47.348;9.648;2024-03-23T23:29:59;4.00;99.90
18073;DHT22;9161;47.348;9.648;2024-03-23T23:35:02;4.00;99.90
18073;DHT22;9161;47.348;9.648;2024-03-23T23:40:06;4.00;99.90
18073;DHT22;9161;47.348;9.648;2024-03-23T23:45:09;4.00;99.90
18073;DHT22;9161;47.348;9.648;2024-03-23T23:50:10;4.10;99.90
18073;DHT22;9161;47.348;9.648;2024-03-23T23:55:14;4.30;99.90
